Skagway, AK

1:08 AM AKDT on July 02, 2015 (GMT -0800)
Skagway | | Change Station
CLOSE
Current Station
Airport
Location: Skagway,
Elevation: 16 ft
Nearby Weather Stations

Elev 16 ft 59.46 °N, 135.32 °W | Updated 15 minutes ago

Light Rain
Light Rain Mist
53 °F
Feels Like 53 °F
N
0
Wind Variable Wind from North

Today
High -- | Low -- °F
--% Chance of Precip.
Yesterday
High -- | Low -- °F
Precip. -- in
3:50 AM 10:19 PM
Full, 100% visible
Pressure 29.94 in
Visibility 5.0 miles
Clouds Mostly Cloudy 500 ft
Overcast 2800 ft
Dew Point 51 °F
Humidity 93%
Rainfall 0.09 in
Snow Depth Not available.
UV 0 out of 12
Pollen Not available.
Air Quality Not available.
Flu Activity Not available.
METAR PAGY 020853Z AUTO 00000KT 5SM -RA BR BKN005 OVC028 12/11 A2993 RMK AO2 SLP136 P0009 60017 T01170106 401830106 56013 TSNO

More Conditions Fewer Conditions

Pressure 29.94 in
Visibility 5.0 miles
Clouds Mostly Cloudy 500 ft
Overcast 2800 ft
Dew Point 51 °F
Humidity 93%
Rainfall 0.09 in
Snow Depth Not available.
UV 0 out of 12
Pollen Not available.
Air Quality Not available.
Flu Activity Not available.
METAR PAGY 020853Z AUTO 00000KT 5SM -RA BR BKN005 OVC028 12/11 A2993 RMK AO2 SLP136 P0009 60017 T01170106 401830106 56013 TSNO

More Conditions Fewer Conditions

10-Day Weather Forecast

×

Almanac

Astronomy

Jul. 02, 2015 Rise Set
Actual Time
Civil Twilight
Nautical Twilight
Astronomical Twilight
Moon
Length of Visible Light
Length of Day
Tomorrow will be .
, % of the Moon is Illuminated

Today's Extremes

State Highs State Lows

Community

WunderPhotos

Upload Photos

1,834,423 photos uploaded!

WunderBlogs® & News

Nearby

Air Quality

  Air Quality AQ Index Pollutant
Not available.

Snow Depth

Station Depth Elevation

Earthquake Activity

City Distance Mag. Time & Date
Minimum magnitude displayed is 2.5.

Coastal Water Temperatures

Place Temperature

Stations

Nearby Weather Stations

Station Location Temp. Windchill Dew Point Humidity Wind Precip. Elev Updated Type